Time;durP1;ratioP1;P1;durP2;ratioP2;P2;SDS_P1;SDS_P2;PMS_P1;PMS_P2;Temp;Humidity;BMP_temperature;BMP_pressure;BME280_temperature;BME280_humidity;BME280_pressure;Samples;Min_cycle;Max_cycle;Signal;HPM_P1;HPM_P2
2022/10/04 00:00:48;;;;;;;7.53;5.95;;;6.90;99.90;;;;;;5012637;28;20054;-73
2022/10/04 00:03:25;;;;;;;8.23;5.53;;;6.80;99.90;;;;;;5011231;28;20368;-73
2022/10/04 00:05:55;;;;;;;7.78;5.38;;;6.80;99.90;;;;;;5034377;28;20127;-72
2022/10/04 00:08:42;;;;;;;8.77;5.90;;;6.70;99.90;;;;;;5017160;28;20026;-72
2022/10/04 00:11:17;;;;;;;8.75;5.72;;;6.60;99.90;;;;;;5014106;28;20104;-73
2022/10/04 00:13:49;;;;;;;11.77;7.28;;;6.60;99.90;;;;;;5032015;28;20382;-72
2022/10/04 00:16:36;;;;;;;11.55;7.88;;;6.60;99.90;;;;;;5031060;28;20386;-72
2022/10/04 00:19:21;;;;;;;7.60;5.07;;;6.30;99.90;;;;;;5031921;28;20427;-72
2022/10/04 00:21:54;;;;;;;8.95;5.28;;;6.20;99.90;;;;;;5030626;28;20099;-73
2022/10/04 00:24:23;;;;;;;11.18;5.70;;;6.40;99.90;;;;;;5031845;28;20029;-72
2022/10/04 00:26:49;;;;;;;12.05;5.45;;;6.40;99.90;;;;;;5031794;28;20033;-72
2022/10/04 00:29:33;;;;;;;13.20;5.70;;;6.50;99.90;;;;;;5031827;28;20103;-72
2022/10/04 00:32:11;;;;;;;9.75;5.75;;;6.50;99.90;;;;;;5030521;28;20117;-72
2022/10/04 00:34:48;;;;;;;8.85;5.60;;;6.50;99.90;;;;;;5031759;28;20032;-72
2022/10/04 00:37:18;;;;;;;10.25;5.88;;;6.50;99.90;;;;;;5031426;28;20422;-72
2022/10/04 00:39:45;;;;;;;8.40;5.25;;;6.30;99.90;;;;;;5031845;28;20108;-73
2022/10/04 00:42:40;;;;;;;9.07;4.50;;;6.30;99.90;;;;;;5031555;28;20075;-73
2022/10/04 00:45:27;;;;;;;7.43;4.60;;;6.30;99.90;;;;;;5031694;28;20476;-72
2022/10/04 00:48:03;;;;;;;8.27;6.18;;;6.30;99.90;;;;;;5030266;28;20083;-72
2022/10/04 00:50:54;;;;;;;10.20;5.40;;;6.40;99.90;;;;;;5031521;28;20056;-71
2022/10/04 00:53:49;;;;;;;6.85;4.93;;;6.40;99.90;;;;;;5030907;28;20065;-72
2022/10/04 00:56:25;;;;;;;8.95;4.72;;;6.20;99.90;;;;;;5031613;28;20027;-72
2022/10/04 00:58:57;;;;;;;;;;;6.20;99.90;;;;;;5031717;28;20033;-72
2022/10/04 01:01:26;;;;;;;6.72;4.43;;;6.20;99.90;;;;;;5031451;28;19909;-72
2022/10/04 01:03:53;;;;;;;7.43;4.43;;;6.10;99.90;;;;;;5031485;28;20032;-72
2022/10/04 01:06:20;;;;;;;9.00;5.25;;;6.10;99.90;;;;;;5030876;28;20022;-72
2022/10/04 01:08:54;;;;;;;9.18;5.15;;;6.20;99.90;;;;;;5011597;28;20065;-72
2022/10/04 01:11:27;;;;;;;12.75;5.22;;;6.40;99.90;;;;;;5018550;28;20029;-72
2022/10/04 01:14:13;;;;;;;8.90;6.00;;;6.40;99.90;;;;;;5035541;28;20075;-72
2022/10/04 01:16:39;;;;;;;13.17;6.63;;;6.50;99.90;;;;;;5034099;28;20036;-72
2022/10/04 01:19:25;;;;;;;12.45;6.97;;;6.50;99.90;;;;;;5034027;28;20026;-72
2022/10/04 01:21:58;;;;;;;;;;;6.50;99.90;;;;;;5035709;28;20076;-72
2022/10/04 01:24:24;;;;;;;12.68;6.38;;;6.40;99.90;;;;;;5033996;28;19912;-72
2022/10/04 01:26:49;;;;;;;6.03;5.05;;;6.10;99.90;;;;;;5034942;28;20025;-72
2022/10/04 01:29:25;;;;;;;9.15;6.20;;;6.00;99.90;;;;;;5035209;28;20026;-72
2022/10/04 01:31:56;;;;;;;14.25;5.60;;;6.00;99.90;;;;;;5033904;28;20053;-72
2022/10/04 01:34:28;;;;;;;8.10;5.10;;;6.00;99.90;;;;;;5033907;28;20083;-71
2022/10/04 01:36:56;;;;;;;7.88;5.50;;;6.00;99.90;;;;;;5033555;28;20030;-71
2022/10/04 01:39:24;;;;;;;8.13;5.10;;;6.10;99.90;;;;;;5034895;28;20022;-72
2022/10/04 01:42:13;;;;;;;57.45;10.18;;;6.00;99.90;;;;;;5034860;28;20064;-73
2022/10/04 01:44:48;;;;;;;40.38;9.02;;;6.10;99.90;;;;;;5033709;28;20033;-73
2022/10/04 01:47:34;;;;;;;26.17;7.68;;;6.10;99.90;;;;;;5034613;28;20150;-73
2022/10/04 01:50:05;;;;;;;15.50;7.38;;;6.20;99.90;;;;;;5034913;28;20033;-73
2022/10/04 01:53:00;;;;;;;9.68;7.03;;;6.00;99.90;;;;;;5034983;28;20017;-73
2022/10/04 01:55:29;;;;;;;10.20;6.03;;;6.00;99.90;;;;;;5034749;28;20049;-73
2022/10/04 01:58:08;;;;;;;7.18;6.03;;;6.00;99.90;;;;;;5049637;28;20120;-73
2022/10/04 02:00:40;;;;;;;13.75;6.63;;;6.00;99.90;;;;;;5029137;28;20407;-73
2022/10/04 02:03:16;;;;;;;7.68;5.32;;;6.10;99.90;;;;;;5014935;28;20018;-73
2022/10/04 02:05:50;;;;;;;7.10;5.45;;;6.00;99.90;;;;;;5032703;28;20536;-72
2022/10/04 02:08:20;;;;;;;8.70;5.00;;;5.90;99.90;;;;;;5020431;28;20160;-72
2022/10/04 02:10:48;;;;;;;5.75;4.80;;;5.90;99.90;;;;;;5014661;28;20529;-72
2022/10/04 02:13:20;;;;;;;7.68;4.80;;;5.80;99.90;;;;;;5033582;28;20094;-72
2022/10/04 02:15:47;;;;;;;7.70;5.55;;;5.80;99.90;;;;;;5034384;28;20029;-71
2022/10/04 02:18:16;;;;;;;8.02;4.13;;;5.70;99.90;;;;;;5034025;28;20068;-72
2022/10/04 02:20:42;;;;;;;33.90;6.50;;;5.30;99.90;;;;;;5033583;28;20022;-72
2022/10/04 02:23:09;;;;;;;70.93;7.35;;;5.40;99.90;;;;;;5032214;28;20021;-72
2022/10/04 02:25:37;;;;;;;46.30;6.65;;;5.20;99.90;;;;;;5033132;28;20419;-72
2022/10/04 02:28:03;;;;;;;40.17;5.72;;;5.30;99.90;;;;;;5034083;28;20021;-72
2022/10/04 02:30:36;;;;;;;30.42;5.70;;;5.30;99.90;;;;;;5034026;28;20079;-73
2022/10/04 02:33:02;;;;;;;28.65;6.65;;;5.40;99.90;;;;;;5032921;28;20053;-72
2022/10/04 02:35:35;;;;;;;6.75;5.10;;;5.40;99.90;;;;;;5033896;28;20061;-72
2022/10/04 02:38:16;;;;;;;5.78;5.18;;;5.50;99.90;;;;;;5033749;28;20033;-72
2022/10/04 02:41:02;;;;;;;5.75;5.18;;;5.60;99.90;;;;;;5033751;28;20021;-72
2022/10/04 02:43:44;;;;;;;7.25;5.65;;;5.70;99.90;;;;;;5033905;28;20029;-72
2022/10/04 02:46:20;;;;;;;7.05;5.90;;;5.70;99.90;;;;;;5033855;28;20475;-72
2022/10/04 02:48:52;;;;;;;9.60;5.75;;;5.80;99.90;;;;;;5033547;28;20479;-72
2022/10/04 02:51:32;;;;;;;37.22;8.63;;;5.70;99.90;;;;;;5032483;28;20037;-72
2022/10/04 02:54:05;;;;;;;23.73;8.55;;;5.30;99.90;;;;;;5033604;28;20414;-72
2022/10/04 02:56:32;;;;;;;26.13;10.13;;;5.20;99.90;;;;;;5032214;28;20124;-72
2022/10/04 02:59:02;;;;;;;20.13;9.38;;;5.20;99.90;;;;;;5033348;28;20095;-72
2022/10/04 03:01:51;;;;;;;17.58;6.10;;;5.40;99.90;;;;;;5033730;28;20028;-72
2022/10/04 03:04:19;;;;;;;41.50;7.10;;;5.50;99.90;;;;;;5027014;28;20395;-72
2022/10/04 03:06:46;;;;;;;28.95;8.13;;;5.70;99.90;;;;;;5041198;28;20045;-72
2022/10/04 03:09:13;;;;;;;65.63;10.60;;;5.80;99.90;;;;;;5013490;28;20022;-72
2022/10/04 03:11:39;;;;;;;33.95;8.45;;;5.70;99.90;;;;;;5019305;28;20091;-71
2022/10/04 03:14:12;;;;;;;34.45;8.07;;;5.70;99.90;;;;;;5032044;28;20040;-73
2022/10/04 03:16:42;;;;;;;101.53;12.13;;;5.90;99.90;;;;;;5033110;28;20484;-72
2022/10/04 03:19:09;;;;;;;108.30;10.07;;;6.00;99.90;;;;;;5032977;28;20014;-73
2022/10/04 03:21:39;;;;;;;36.97;8.63;;;6.10;99.90;;;;;;5032831;28;20037;-73
2022/10/04 03:24:05;;;;;;;95.88;15.98;;;6.10;99.90;;;;;;5033166;28;20025;-73
2022/10/04 03:27:02;;;;;;;101.72;11.70;;;6.10;99.90;;;;;;5031663;28;20035;-73
2022/10/04 03:29:31;;;;;;;81.20;10.60;;;6.00;99.90;;;;;;5024545;28;20033;-72
2022/10/04 03:31:59;;;;;;;58.60;8.55;;;6.10;99.90;;;;;;5032870;28;20022;-73
2022/10/04 03:34:32;;;;;;;64.70;10.27;;;6.20;99.90;;;;;;5032603;28;20026;-72
2022/10/04 03:36:59;;;;;;;108.63;13.38;;;6.10;99.90;;;;;;5031341;28;20487;-72
2022/10/04 03:39:34;;;;;;;54.03;11.75;;;6.30;99.90;;;;;;5032734;28;20508;-73
2022/10/04 03:42:15;;;;;;;28.38;11.18;;;6.10;99.90;;;;;;5032647;28;20025;-72
2022/10/04 03:44:43;;;;;;;15.85;7.63;;;6.10;99.90;;;;;;5032854;28;20386;-72
2022/10/04 03:47:13;;;;;;;29.77;9.77;;;6.30;99.90;;;;;;5032409;28;20104;-72
2022/10/04 03:49:41;;;;;;;32.60;12.05;;;6.30;99.90;;;;;;5032673;28;20040;-73
2022/10/04 03:52:13;;;;;;;30.42;11.18;;;6.10;99.90;;;;;;5031256;28;20498;-72
2022/10/04 03:54:39;;;;;;;18.05;8.25;;;6.10;99.90;;;;;;5031190;28;20029;-72
2022/10/04 03:57:05;;;;;;;36.42;11.35;;;6.20;99.90;;;;;;5026916;28;20124;-72
2022/10/04 03:59:33;;;;;;;56.97;13.90;;;6.20;99.90;;;;;;5012922;28;20065;-73
2022/10/04 04:02:18;;;;;;;83.88;14.15;;;6.10;99.90;;;;;;5011206;28;20029;-72
2022/10/04 04:05:02;;;;;;;105.00;16.90;;;6.00;99.90;;;;;;5015752;28;20029;-72
2022/10/04 04:07:38;;;;;;;126.50;15.57;;;5.70;99.90;;;;;;5040491;28;20064;-72
2022/10/04 04:10:19;;;;;;;115.20;16.20;;;5.60;99.90;;;;;;5032201;28;20029;-72
2022/10/04 04:12:51;;;;;;;116.28;18.00;;;5.60;99.90;;;;;;5017144;28;20026;-73
2022/10/04 04:15:17;;;;;;;73.85;12.13;;;5.70;99.90;;;;;;5012530;28;20492;-72
2022/10/04 04:17:45;;;;;;;103.57;27.27;;;5.70;99.90;;;;;;5011905;28;20044;-72
2022/10/04 04:20:23;;;;;;;76.40;13.38;;;5.80;99.90;;;;;;5012187;28;20013;-72
2022/10/04 04:23:10;;;;;;;72.82;17.48;;;5.80;99.90;;;;;;5012227;28;20030;-72
2022/10/04 04:25:39;;;;;;;54.00;22.00;;;5.90;99.90;;;;;;5012328;28;20022;-72
2022/10/04 04:28:15;;;;;;;38.38;15.00;;;5.90;99.90;;;;;;5010639;28;20032;-72
2022/10/04 04:30:45;;;;;;;54.75;18.48;;;6.00;99.90;;;;;;5010816;28;20116;-72
2022/10/04 04:33:28;;;;;;;32.35;14.32;;;6.00;99.90;;;;;;5012286;28;20144;-72
2022/10/04 04:36:01;;;;;;;35.47;11.55;;;6.20;99.90;;;;;;5027237;28;20444;-73
2022/10/04 04:38:27;;;;;;;55.08;15.27;;;6.30;99.90;;;;;;5012262;28;20161;-71
2022/10/04 04:40:54;;;;;;;46.20;13.13;;;6.30;99.90;;;;;;5011884;28;20575;-72
2022/10/04 04:43:20;;;;;;;39.83;13.27;;;6.30;99.90;;;;;;5012075;28;20475;-72
2022/10/04 04:45:48;;;;;;;59.33;15.65;;;6.30;99.90;;;;;;5011339;28;20034;-73
2022/10/04 04:48:16;;;;;;;80.97;15.93;;;6.40;99.90;;;;;;5011797;28;20022;-73
2022/10/04 04:50:47;;;;;;;267.25;28.23;;;6.40;99.90;;;;;;5011804;28;20116;-72
2022/10/04 04:53:16;;;;;;;56.67;12.60;;;6.30;99.90;;;;;;5011869;28;20037;-74
2022/10/04 04:55:49;;;;;;;40.22;14.77;;;6.40;99.90;;;;;;5011765;28;20030;-72
2022/10/04 04:58:25;;;;;;;26.63;11.35;;;6.50;99.90;;;;;;5011483;28;20030;-73
2022/10/04 05:00:56;;;;;;;;;;;6.60;99.90;;;;;;5012262;28;20502;-72
2022/10/04 05:03:22;;;;;;;20.25;10.85;;;6.70;99.90;;;;;;5010398;28;19948;-72
2022/10/04 05:05:47;;;;;;;42.63;14.75;;;6.70;99.90;;;;;;5031031;28;20055;-73
2022/10/04 05:08:26;;;;;;;128.93;36.70;;;6.70;99.90;;;;;;5018542;28;20041;-73
2022/10/04 05:11:11;;;;;;;86.65;21.00;;;6.50;99.90;;;;;;5011807;28;20124;-72
2022/10/04 05:13:55;;;;;;;122.85;22.45;;;6.30;99.90;;;;;;5019193;28;20112;-72
2022/10/04 05:16:34;;;;;;;144.00;25.00;;;6.30;99.90;;;;;;5031399;28;20025;-72
2022/10/04 05:19:04;;;;;;;257.52;30.73;;;6.20;99.90;;;;;;5031246;28;20026;-72
2022/10/04 05:21:32;;;;;;;142.18;22.02;;;6.10;99.90;;;;;;5031547;28;20079;-73
2022/10/04 05:24:08;;;;;;;200.00;26.38;;;6.10;99.90;;;;;;5031380;28;20026;-73
2022/10/04 05:26:34;;;;;;;179.45;24.27;;;6.20;99.90;;;;;;5031272;28;20026;-73
2022/10/04 05:29:10;;;;;;;132.75;22.35;;;6.30;99.90;;;;;;5031213;28;20032;-73
2022/10/04 05:31:45;;;;;;;166.23;24.70;;;6.30;99.90;;;;;;5031276;28;20375;-73
2022/10/04 05:34:36;;;;;;;136.30;32.35;;;6.30;99.90;;;;;;5031206;28;20026;-73
2022/10/04 05:37:29;;;;;;;69.25;21.08;;;6.40;99.90;;;;;;5030982;28;20059;-72
2022/10/04 05:40:13;;;;;;;155.18;27.23;;;6.40;99.90;;;;;;5031277;28;20057;-73
2022/10/04 05:42:46;;;;;;;130.05;29.80;;;6.50;99.90;;;;;;5031068;28;20463;-73
2022/10/04 05:45:27;;;;;;;91.95;29.92;;;6.40;99.90;;;;;;5031090;28;20018;-73
2022/10/04 05:47:59;;;;;;;90.40;30.90;;;6.50;99.90;;;;;;5029668;28;20021;-73
2022/10/04 05:50:42;;;;;;;44.60;20.25;;;6.60;99.90;;;;;;5013055;28;20048;-73
2022/10/04 05:53:28;;;;;;;19.90;12.68;;;6.60;99.90;;;;;;5011448;28;20026;-72
2022/10/04 05:56:00;;;;;;;36.95;17.58;;;6.80;99.90;;;;;;5012264;28;20030;-73
2022/10/04 05:58:44;;;;;;;25.85;13.88;;;6.90;99.90;;;;;;5014601;28;20026;-73
2022/10/04 06:01:21;;;;;;;25.60;14.18;;;6.90;99.90;;;;;;5014895;28;20084;-73
2022/10/04 06:04:24;;;;;;;24.45;13.65;;;7.00;99.90;;;;;;5014761;28;20480;-73
2022/10/04 06:07:02;;;;;;;40.45;18.08;;;7.10;99.90;;;;;;5028393;28;20025;-72
2022/10/04 06:10:15;;;;;;;50.75;20.60;;;7.10;99.90;;;;;;5028138;28;20014;-72
2022/10/04 06:13:02;;;;;;;49.40;21.10;;;7.00;99.90;;;;;;5005571;28;20534;-73
2022/10/04 06:16:11;;;;;;;42.83;19.05;;;6.80;99.90;;;;;;5012311;28;20026;-72
2022/10/04 06:18:57;;;;;;;80.13;21.17;;;6.80;99.90;;;;;;5014224;28;20559;-72
2022/10/04 06:21:33;;;;;;;41.75;17.20;;;6.80;99.90;;;;;;5014377;28;20088;-72
2022/10/04 06:24:03;;;;;;;52.92;18.25;;;6.80;99.90;;;;;;5014646;28;20423;-73
2022/10/04 06:26:43;;;;;;;68.15;22.05;;;6.80;99.90;;;;;;5015081;28;20026;-72
2022/10/04 06:29:15;;;;;;;62.53;20.88;;;6.70;99.90;;;;;;5014297;28;20026;-72
2022/10/04 06:32:27;;;;;;;58.75;21.73;;;6.70;99.90;;;;;;5014318;28;20056;-73
2022/10/04 06:35:22;;;;;;;74.22;25.50;;;6.70;99.90;;;;;;5004514;28;20036;-72
2022/10/04 06:38:03;;;;;;;87.38;23.33;;;6.80;99.90;;;;;;5012605;28;20103;-73
2022/10/04 06:40:53;;;;;;;75.03;25.10;;;6.70;99.90;;;;;;5012819;28;20045;-72
2022/10/04 06:43:33;;;;;;;52.15;24.67;;;6.80;99.90;;;;;;5014090;28;20384;-72
2022/10/04 06:46:11;;;;;;;62.63;24.15;;;7.00;99.90;;;;;;5012917;28;20025;-72
2022/10/04 06:48:55;;;;;;;61.15;26.40;;;7.10;99.90;;;;;;5013732;28;20026;-72
2022/10/04 06:51:52;;;;;;;65.75;31.60;;;7.10;99.90;;;;;;5014024;28;20431;-73
2022/10/04 06:54:33;;;;;;;41.08;25.17;;;7.10;99.90;;;;;;5013924;28;20034;-72
2022/10/04 06:57:17;;;;;;;59.30;31.27;;;7.30;99.90;;;;;;5013775;28;20084;-71
2022/10/04 07:00:06;;;;;;;64.60;29.00;;;7.30;99.90;;;;;;5013824;28;20045;-72
2022/10/04 07:02:51;;;;;;;60.40;30.98;;;7.30;99.90;;;;;;5015932;28;20487;-73
2022/10/04 07:05:38;;;;;;;87.50;49.47;;;7.40;99.90;;;;;;5037568;28;20021;-72
2022/10/04 07:08:29;;;;;;;59.85;28.55;;;7.50;99.90;;;;;;5035630;28;20475;-78
2022/10/04 07:11:09;;;;;;;75.65;40.80;;;7.40;99.90;;;;;;5027200;28;20013;-73
2022/10/04 07:13:47;;;;;;;85.85;46.05;;;7.30;99.90;;;;;;5030048;28;20025;-72
2022/10/04 07:16:23;;;;;;;55.33;29.58;;;7.40;99.90;;;;;;5032023;28;20037;-72
2022/10/04 07:19:08;;;;;;;45.67;26.52;;;7.50;99.90;;;;;;5032804;28;20431;-72
2022/10/04 07:22:06;;;;;;;35.83;23.60;;;7.60;99.90;;;;;;5031592;28;20037;-72
2022/10/04 07:24:55;;;;;;;34.55;21.83;;;7.90;99.90;;;;;;5031758;28;20116;-72
2022/10/04 07:27:43;;;;;;;38.30;22.13;;;8.00;99.90;;;;;;5032491;28;20026;-73
2022/10/04 07:30:17;;;;;;;31.88;19.48;;;8.20;99.90;;;;;;5013298;28;20491;-72
2022/10/04 07:32:57;;;;;;;28.25;18.95;;;8.10;99.90;;;;;;5013065;28;20083;-73
2022/10/04 07:35:34;;;;;;;26.75;18.60;;;8.20;99.90;;;;;;5013141;28;20022;-72
2022/10/04 07:38:14;;;;;;;30.58;20.55;;;8.30;99.90;;;;;;5019837;28;20026;-73
2022/10/04 07:41:08;;;;;;;33.33;21.50;;;8.40;99.90;;;;;;5032725;28;20025;-72
2022/10/04 07:43:55;;;;;;;34.90;23.10;;;8.40;99.90;;;;;;5031406;28;20064;-73
2022/10/04 07:46:39;;;;;;;35.80;22.75;;;8.40;99.90;;;;;;5032844;28;20022;-72
2022/10/04 07:49:19;;;;;;;37.33;23.40;;;8.40;99.90;;;;;;5032307;28;20029;-73
2022/10/04 07:52:06;;;;;;;35.40;21.90;;;8.50;99.90;;;;;;5032491;28;20030;-72
2022/10/04 07:54:45;;;;;;;32.55;21.75;;;8.60;99.90;;;;;;5032608;28;20383;-73
2022/10/04 07:57:16;;;;;;;34.50;21.90;;;8.60;99.90;;;;;;5032349;28;20068;-72
2022/10/04 08:00:10;;;;;;;29.13;20.10;;;8.80;99.90;;;;;;5047651;28;20489;-74
2022/10/04 08:02:54;;;;;;;24.35;18.65;;;9.10;99.90;;;;;;5031061;28;20083;-73
2022/10/04 08:05:34;;;;;;;31.80;21.67;;;9.20;99.90;;;;;;5037099;28;20021;-73
2022/10/04 08:08:15;;;;;;;31.35;20.20;;;9.20;99.90;;;;;;5022689;28;20484;-72
2022/10/04 08:11:09;;;;;;;38.13;24.35;;;9.20;99.90;;;;;;5012546;28;20388;-73
2022/10/04 08:14:00;;;;;;;31.45;20.20;;;9.10;99.90;;;;;;5019427;28;20026;-73
2022/10/04 08:16:34;;;;;;;31.65;20.23;;;9.40;99.90;;;;;;5015445;28;20105;-73
2022/10/04 08:19:11;;;;;;;33.85;18.55;;;9.40;99.90;;;;;;5011485;28;20383;-73
2022/10/04 08:21:57;;;;;;;22.33;17.45;;;9.40;99.90;;;;;;5012119;28;20026;-72
2022/10/04 08:24:41;;;;;;;20.92;16.98;;;9.60;99.90;;;;;;5011975;28;20041;-72
2022/10/04 08:29:41;;;;;;;24.10;19.13;;;9.60;99.90;;;;;;5012105;28;20022;-72
2022/10/04 08:31:04;;;;;;;22.35;16.73;;;9.50;99.90;;;;;;5012002;28;20518;-73
2022/10/04 08:33:53;;;;;;;26.77;17.67;;;9.60;99.90;;;;;;5012250;28;20026;-73
2022/10/04 08:36:47;;;;;;;25.45;18.13;;;9.70;99.90;;;;;;5012133;28;20025;-73
2022/10/04 08:39:54;;;;;;;26.80;18.40;;;9.60;99.90;;;;;;5010731;28;20436;-73
2022/10/04 08:43:04;;;;;;;25.10;17.95;;;9.60;99.90;;;;;;5011573;28;20040;-73
2022/10/04 08:45:55;;;;;;;27.42;16.75;;;9.70;99.90;;;;;;5010629;28;20422;-73
2022/10/04 08:48:48;;;;;;;27.58;17.88;;;9.80;99.90;;;;;;5011682;28;20030;-73
2022/10/04 08:51:50;;;;;;;25.45;17.33;;;9.80;99.90;;;;;;5011927;28;20038;-72
2022/10/04 08:54:39;;;;;;;24.08;16.27;;;9.90;99.90;;;;;;5027208;28;20041;-73
2022/10/04 08:57:32;;;;;;;24.63;16.30;;;10.20;99.90;;;;;;5010325;28;20030;-73
2022/10/04 09:00:00;;;;;;;24.27;16.88;;;10.30;99.90;;;;;;5011894;28;20626;-72
2022/10/04 09:02:47;;;;;;;25.02;17.58;;;10.30;99.90;;;;;;5011712;28;20428;-73
2022/10/04 09:05:41;;;;;;;23.80;15.68;;;10.30;99.90;;;;;;5017795;28;20021;-73
2022/10/04 09:08:25;;;;;;;25.40;16.33;;;10.50;99.90;;;;;;5007558;28;20528;-73
2022/10/04 09:11:09;;;;;;;22.42;15.38;;;10.80;99.90;;;;;;5010406;28;20033;-73
2022/10/04 09:13:56;;;;;;;22.60;15.00;;;10.70;99.90;;;;;;5019085;28;20021;-73
2022/10/04 09:16:34;;;;;;;21.88;13.48;;;10.70;99.90;;;;;;5031278;28;20057;-72
2022/10/04 09:19:20;;;;;;;21.60;14.43;;;10.60;99.90;;;;;;5031246;28;20061;-73
2022/10/04 09:21:46;;;;;;;20.95;13.73;;;10.80;99.90;;;;;;5031162;28;20022;-73
2022/10/04 09:24:32;;;;;;;19.08;12.85;;;10.90;99.90;;;;;;5031441;28;20022;-73
2022/10/04 09:27:12;;;;;;;22.23;12.68;;;10.80;99.90;;;;;;5031288;28;20499;-73
2022/10/04 09:30:02;;;;;;;17.20;12.52;;;11.20;99.90;;;;;;5029934;28;20113;-72
2022/10/04 09:32:58;;;;;;;20.73;14.45;;;11.40;99.90;;;;;;5033592;28;20045;-73
2022/10/04 09:35:28;;;;;;;20.38;14.07;;;11.70;99.90;;;;;;5035298;28;20375;-73
2022/10/04 09:38:04;;;;;;;22.15;13.65;;;11.70;99.90;;;;;;5033663;28;20071;-73
2022/10/04 09:40:39;;;;;;;14.38;11.07;;;11.80;99.90;;;;;;5034933;28;20014;-73
2022/10/04 09:43:35;;;;;;;16.25;11.48;;;12.00;99.90;;;;;;5035134;28;20028;-73
2022/10/04 09:46:16;;;;;;;13.13;9.85;;;12.10;99.90;;;;;;5035168;28;20076;-73
2022/10/04 09:49:23;;;;;;;13.02;9.63;;;11.90;99.90;;;;;;5034598;28;20156;-73
2022/10/04 09:52:17;;;;;;;23.48;14.32;;;11.90;99.90;;;;;;5033438;28;20043;-72
2022/10/04 09:55:14;;;;;;;14.48;9.70;;;12.20;99.90;;;;;;5034904;28;20033;-73
2022/10/04 09:58:28;;;;;;;13.25;8.25;;;12.50;99.90;;;;;;5033141;28;20419;-73
2022/10/04 10:01:28;;;;;;;13.55;8.48;;;12.30;99.90;;;;;;5034639;28;20390;-73
2022/10/04 10:04:27;;;;;;;15.15;7.97;;;12.50;99.90;;;;;;5033428;28;20036;-73
2022/10/04 10:07:34;;;;;;;14.25;7.32;;;12.70;99.90;;;;;;5042132;28;20021;-73
2022/10/04 10:16:29;;;;;;;10.30;5.88;;;12.80;99.90;;;;;;5034269;28;20326;-73
2022/10/04 10:19:29;;;;;;;11.65;6.00;;;12.90;99.90;;;;;;5015908;28;20595;-73
2022/10/04 10:22:13;;;;;;;8.60;5.53;;;13.00;99.90;;;;;;5034203;28;20382;-73
2022/10/04 10:24:57;;;;;;;8.18;5.90;;;13.30;99.90;;;;;;5034379;28;20033;-73
2022/10/04 10:27:30;;;;;;;8.48;5.30;;;13.50;99.90;;;;;;5033970;28;20025;-73
2022/10/04 10:30:23;;;;;;;8.82;5.13;;;13.50;99.90;;;;;;5032896;28;20022;-73
2022/10/04 10:33:11;;;;;;;8.93;4.47;;;13.40;99.90;;;;;;5033130;28;20344;-73
2022/10/04 10:35:55;;;;;;;10.15;4.28;;;13.50;99.90;;;;;;5032751;28;20121;-73
2022/10/04 10:38:49;;;;;;;8.73;4.07;;;13.30;99.90;;;;;;5033771;28;20030;-73
2022/10/04 10:41:26;;;;;;;14.80;5.00;;;13.20;99.90;;;;;;5033944;28;20110;-73
2022/10/04 10:44:09;;;;;;;7.53;4.32;;;13.70;99.90;;;;;;5032822;28;20020;-73
2022/10/04 10:47:00;;;;;;;10.82;3.63;;;13.80;99.90;;;;;;5033882;28;20025;-73
2022/10/04 10:49:43;;;;;;;7.90;3.65;;;13.70;99.90;;;;;;5033816;28;20017;-73
2022/10/04 10:52:16;;;;;;;7.88;3.40;;;13.70;99.90;;;;;;5033706;28;20021;-73
2022/10/04 10:54:54;;;;;;;5.68;2.95;;;13.60;99.90;;;;;;5032479;28;20025;-73
2022/10/04 10:57:54;;;;;;;7.43;3.00;;;13.70;99.90;;;;;;5033381;28;20487;-73
2022/10/04 11:00:23;;;;;;;5.55;3.10;;;13.80;99.90;;;;;;5020051;28;20048;-73
2022/10/04 11:03:11;;;;;;;8.65;3.22;;;14.10;99.90;;;;;;5033541;28;20029;-72
2022/10/04 11:06:20;;;;;;;7.97;3.30;;;14.20;99.90;;;;;;5042088;28;20467;-73
2022/10/04 11:08:58;;;;;;;9.57;3.47;;;14.00;99.90;;;;;;5033779;28;20044;-73
2022/10/04 11:11:48;;;;;;;7.00;2.80;;;13.90;99.90;;;;;;5030199;28;20029;-73
2022/10/04 11:14:36;;;;;;;7.60;3.42;;;14.20;99.90;;;;;;5014487;28;20026;-73
2022/10/04 11:17:19;;;;;;;6.60;3.60;;;14.00;99.90;;;;;;5013486;28;20030;-73
2022/10/04 11:20:06;;;;;;;7.85;3.28;;;14.00;99.90;;;;;;5013520;28;20022;-73
2022/10/04 11:22:49;;;;;;;6.05;3.08;;;13.90;99.90;;;;;;5013772;28;20030;-73
2022/10/04 11:25:53;;;;;;;5.28;2.75;;;14.20;99.90;;;;;;5013335;28;20018;-73
2022/10/04 11:28:45;;;;;;;7.88;3.42;;;14.50;99.90;;;;;;5013110;28;20022;-73
2022/10/04 11:31:14;;;;;;;10.13;3.90;;;14.50;99.90;;;;;;5013721;28;20030;-74
2022/10/04 11:33:54;;;;;;;7.60;5.07;;;14.60;99.90;;;;;;5013199;28;20557;-73
2022/10/04 11:36:46;;;;;;;10.00;4.80;;;14.80;99.90;;;;;;5013300;28;20033;-73
2022/10/04 11:39:46;;;;;;;9.25;4.03;;;15.00;99.90;;;;;;5012420;28;20042;-73
2022/10/04 11:42:35;;;;;;;5.72;3.95;;;15.10;99.90;;;;;;5011443;28;20034;-73
2022/10/04 11:45:32;;;;;;;8.48;3.35;;;15.30;99.90;;;;;;5013163;28;20479;-74
2022/10/04 11:48:23;;;;;;;7.68;3.35;;;15.70;99.90;;;;;;5012398;28;20038;-73
2022/10/04 11:51:33;;;;;;;6.22;3.08;;;16.60;99.90;;;;;;5012840;28;20432;-74
2022/10/04 11:54:17;;;;;;;6.50;3.17;;;16.80;99.90;;;;;;5027770;28;20025;-74
2022/10/04 11:57:09;;;;;;;6.15;2.63;;;17.10;99.90;;;;;;5011428;28;20071;-74
2022/10/04 11:59:46;;;;;;;6.38;2.90;;;17.50;99.90;;;;;;5010509;28;20038;-73
2022/10/04 12:02:31;;;;;;;4.18;2.25;;;17.90;99.90;;;;;;5011314;28;20026;-74
2022/10/04 12:05:15;;;;;;;6.72;2.72;;;17.80;99.90;;;;;;5016414;28;20124;-74
2022/10/04 12:07:56;;;;;;;4.57;3.47;;;16.50;99.90;;;;;;5020284;28;20030;-74
2022/10/04 12:11:07;;;;;;;4.90;3.30;;;16.90;99.90;;;;;;5012546;28;20472;-74
2022/10/04 12:14:02;;;;;;;5.40;3.03;;;17.50;99.90;;;;;;5001211;28;20073;-74
2022/10/04 12:16:51;;;;;;;7.20;3.67;;;17.60;99.90;;;;;;4996654;28;20048;-74
2022/10/04 12:19:28;;;;;;;5.85;3.88;;;17.20;99.90;;;;;;5012429;28;20026;-73
2022/10/04 12:21:58;;;;;;;7.25;3.45;;;16.90;99.90;;;;;;5010953;28;20030;-74
2022/10/04 12:24:49;;;;;;;8.27;4.00;;;17.00;99.90;;;;;;5027556;28;20030;-74
2022/10/04 12:27:39;;;;;;;7.30;3.95;;;17.10;99.90;;;;;;5010666;28;20026;-73
2022/10/04 12:30:29;;;;;;;7.60;4.18;;;16.20;99.90;;;;;;5012272;28;20111;-74
2022/10/04 12:33:07;;;;;;;5.95;3.67;;;15.90;99.90;;;;;;5012244;28;20033;-74
2022/10/04 12:35:57;;;;;;;7.03;3.50;;;16.60;99.90;;;;;;5012063;28;20029;-74
2022/10/04 12:38:48;;;;;;;6.35;2.85;;;17.10;99.90;;;;;;5011982;28;20029;-73
2022/10/04 12:41:20;;;;;;;8.82;3.60;;;17.30;99.90;;;;;;5011035;28;20076;-74
2022/10/04 12:44:00;;;;;;;8.43;3.85;;;17.00;99.90;;;;;;5011899;28;20022;-74
2022/10/04 12:46:51;;;;;;;6.80;3.30;;;17.70;99.90;;;;;;5012090;28;20053;-73
2022/10/04 12:49:38;;;;;;;4.80;3.17;;;18.90;99.90;;;;;;5012055;28;20025;-74
2022/10/04 12:52:13;;;;;;;6.03;3.25;;;19.60;99.90;;;;;;5011908;28;20029;-74
2022/10/04 12:54:46;;;;;;;4.95;2.78;;;19.70;99.90;;;;;;5011984;28;20072;-73
2022/10/04 12:57:28;;;;;;;5.43;3.10;;;19.10;99.90;;;;;;5011555;28;20145;-73
2022/10/04 12:59:58;;;;;;;6.30;3.13;;;19.20;99.90;;;;;;5011798;28;20022;-73
2022/10/04 13:02:34;;;;;;;3.88;2.22;;;19.20;99.90;;;;;;5011864;28;20370;-74
2022/10/04 13:05:32;;;;;;;5.63;2.80;;;20.10;99.90;;;;;;5019211;28;20041;-73
2022/10/04 13:08:04;;;;;;;4.72;3.00;;;20.90;99.90;;;;;;5026138;28;20046;-74
2022/10/04 13:10:43;;;;;;;4.40;2.38;;;21.70;99.90;;;;;;5018242;28;20048;-74
2022/10/04 13:13:23;;;;;;;5.50;2.03;;;22.00;99.90;;;;;;5036244;28;20022;-74
2022/10/04 13:16:07;;;;;;;3.30;2.15;;;22.00;99.90;;;;;;5038086;28;20412;-75
2022/10/04 13:18:54;;;;;;;6.30;2.58;;;21.40;99.90;;;;;;5036501;28;20122;-74
2022/10/04 13:21:39;;;;;;;5.72;2.20;;;21.00;99.90;;;;;;5037799;28;20033;-75
2022/10/04 13:24:19;;;;;;;4.43;2.33;;;20.10;99.90;;;;;;5037867;28;20022;-74
2022/10/04 13:27:02;;;;;;;5.15;2.60;;;19.20;99.90;;;;;;5037893;28;20108;-74
2022/10/04 13:29:55;;;;;;;6.20;2.35;;;18.90;99.90;;;;;;5037994;28;20060;-74
2022/10/04 13:32:28;;;;;;;4.25;2.42;;;20.40;99.90;;;;;;5031964;28;20034;-74
2022/10/04 13:35:00;;;;;;;5.90;2.58;;;21.80;99.90;;;;;;5037926;28;20029;-73
2022/10/04 13:37:50;;;;;;;3.83;2.10;;;22.60;99.90;;;;;;5037539;28;20025;-75
2022/10/04 13:40:34;;;;;;;6.47;2.42;;;22.30;99.90;;;;;;5037711;28;20028;-75
2022/10/04 13:43:02;;;;;;;4.53;2.17;;;21.20;99.90;;;;;;5038086;28;20025;-75
2022/10/04 13:45:56;;;;;;;4.78;2.28;;;22.40;99.90;;;;;;5037681;28;20062;-74
2022/10/04 13:48:31;;;;;;;4.47;2.75;;;23.50;99.90;;;;;;5036198;28;20029;-75
2022/10/04 13:51:19;;;;;;;4.77;3.03;;;23.60;99.90;;;;;;5038010;28;20383;-75
2022/10/04 13:57:44;;;;;;;6.15;2.67;;;23.80;99.90;;;;;;5037863;28;20106;-74
2022/10/04 14:00:13;;;;;;;4.82;2.80;;;24.30;99.90;;;;;;5037692;28;20021;-75
2022/10/04 14:03:16;;;;;;;4.25;2.40;;;24.30;99.90;;;;;;5037606;28;20091;-75